Southern Baltic, Poland
Current Conditions -  °F | °C
As of 3:30 AM on Friday 19 Dec 2014 (Local Time) from EPGD Reporting Station
Light Rain Light Rain  
Wind Chill: 50°   Ceiling: 900
Heat Index: 50°   Visibility: 5mi
Dew Point: 48°   Wind: 17mph
Humidity: 94%   Direction: 260°W
Pressure: 29.44"   Gusts: 29mph
Location:  55.25°N, 18.25°E
Report Text: EPGD 190130Z 26015G25KT 230V290 8000 -RA BKN009 10/09 Q0997
Loading
Personal Weather Stations






























Interactive Weather Map New forecast layout! Learn more

10-Day Weather Forecast

Advertisements
Track Severe Weather on mobile